Terminal Aerodrome Forecast
Issued by NWS

Home | Current Version | Previous Version | Text Only | Print | Product List | Glossary On
Versions: 1 2 3 4 5 6 7 8 9 10 11 12 13 14 15 16 17 18 19 20 21 22 23 24 25 26 27 28 29 30 31 32
000
FTUS45 KREV 161734
TAFTVL
TAF
KTVL 161734Z 1618/1718 19008G14KT P6SM VCSH SCT025 BKN080 OVC100
      WS020/20045KT
     FM162000 20022G35KT P6SM SCT025 BKN070 WS015/23055KT
     FM170100 19017G30KT 2SM RASN BKN012 OVC020 WS020/23050KT
     FM170600 19015G25KT 1/2SM RASN SCT005 OVC008 WS020/23060KT=

USA.gov is the U.S. government's official web portal to all federal, state and local government web resources and services.